<?xml version="1.0" encoding="UTF-8" standalone="no" ?>
<gpx xmlns="http://www.topografix.com/GPX/1/1" xmlns:xsi="http://www.w3.org/2001/XMLSchema-instance" xsi:schemaLocation="http://www.topografix.com/GPX/1/1 http://www.topografix.com/GPX/1/1/gpx.xsd" version="1.1" creator="VisuGPX - https://www.visugpx.com">
  <metadata>
    <name>Rando LN</name>
  </metadata>
  <trk>
    <name><![CDATA[Conques]]></name>
    <extensions>
      <line xmlns="http://www.topografix.com/GPX/gpx_style/0/2">
        <color>0000ff</color>
        <width>4</width>
      </line>
    </extensions>
    <trkseg>
      <trkpt lat="44.56326" lon="2.26366">
        <ele>352.085</ele>
        <time>2015-08-05T12:26:07Z</time>
      </trkpt>
      <trkpt lat="44.56326" lon="2.26366">
        <ele>352.085</ele>
        <time>2015-08-05T12:26:07Z</time>
      </trkpt>
      <trkpt lat="44.56326" lon="2.26366">
        <ele>352.085</ele>
        <time>2015-08-05T12:26:07Z</time>
      </trkpt>
      <trkpt lat="44.56326" lon="2.26366">
        <ele>352.085</ele>
        <time>2015-08-05T12:26:07Z</time>
      </trkpt>
      <trkpt lat="44.56326" lon="2.26366">
        <ele>352.085</ele>
        <time>2015-08-05T12:26:07Z</time>
      </trkpt>
      <trkpt lat="44.56329" lon="2.26417">
        <ele>352.041</ele>
        <time>2015-08-05T12:26:27Z</time>
      </trkpt>
      <trkpt lat="44.56313" lon="2.26451">
        <ele>353.193</ele>
        <time>2015-08-05T12:26:47Z</time>
      </trkpt>
      <trkpt lat="44.56313" lon="2.26574">
        <ele>356.383</ele>
        <time>2015-08-05T12:27:07Z</time>
      </trkpt>
      <trkpt lat="44.56482" lon="2.27118">
        <ele>344.925</ele>
        <time>2015-08-05T12:27:27Z</time>
      </trkpt>
      <trkpt lat="44.56504" lon="2.27216">
        <ele>344.017</ele>
        <time>2015-08-05T12:27:47Z</time>
      </trkpt>
      <trkpt lat="44.56504" lon="2.27289">
        <ele>339.808</ele>
        <time>2015-08-05T12:28:07Z</time>
      </trkpt>
      <trkpt lat="44.5647" lon="2.27429">
        <ele>333.354</ele>
        <time>2015-08-05T12:28:27Z</time>
      </trkpt>
      <trkpt lat="44.56427" lon="2.27495">
        <ele>333.029</ele>
        <time>2015-08-05T12:28:47Z</time>
      </trkpt>
      <trkpt lat="44.56415" lon="2.27579">
        <ele>333.019</ele>
        <time>2015-08-05T12:29:07Z</time>
      </trkpt>
      <trkpt lat="44.56344" lon="2.27807">
        <ele>338.241</ele>
        <time>2015-08-05T12:29:27Z</time>
      </trkpt>
      <trkpt lat="44.56364" lon="2.27825">
        <ele>336.613</ele>
        <time>2015-08-05T12:29:47Z</time>
      </trkpt>
      <trkpt lat="44.56368" lon="2.27887">
        <ele>340.254</ele>
        <time>2015-08-05T12:30:07Z</time>
      </trkpt>
      <trkpt lat="44.5635" lon="2.27982">
        <ele>350.14</ele>
        <time>2015-08-05T12:30:27Z</time>
      </trkpt>
      <trkpt lat="44.56347" lon="2.28032">
        <ele>350.172</ele>
        <time>2015-08-05T12:30:47Z</time>
      </trkpt>
      <trkpt lat="44.56373" lon="2.2821">
        <ele>364.666</ele>
        <time>2015-08-05T12:31:07Z</time>
      </trkpt>
      <trkpt lat="44.56373" lon="2.28359">
        <ele>377.529</ele>
        <time>2015-08-05T12:31:27Z</time>
      </trkpt>
      <trkpt lat="44.56404" lon="2.28409">
        <ele>385.721</ele>
        <time>2015-08-05T12:31:47Z</time>
      </trkpt>
      <trkpt lat="44.56367" lon="2.28414">
        <ele>386.708</ele>
        <time>2015-08-05T12:32:07Z</time>
      </trkpt>
      <trkpt lat="44.56327" lon="2.28462">
        <ele>395.052</ele>
        <time>2015-08-05T12:32:27Z</time>
      </trkpt>
      <trkpt lat="44.5624" lon="2.28615">
        <ele>407.557</ele>
        <time>2015-08-05T12:32:47Z</time>
      </trkpt>
      <trkpt lat="44.56218" lon="2.28692">
        <ele>408.717</ele>
        <time>2015-08-05T12:33:07Z</time>
      </trkpt>
      <trkpt lat="44.56216" lon="2.28761">
        <ele>413.949</ele>
        <time>2015-08-05T12:33:27Z</time>
      </trkpt>
      <trkpt lat="44.56256" lon="2.28812">
        <ele>426.151</ele>
        <time>2015-08-05T12:33:47Z</time>
      </trkpt>
      <trkpt lat="44.56272" lon="2.29005">
        <ele>432.032</ele>
        <time>2015-08-05T12:34:07Z</time>
      </trkpt>
      <trkpt lat="44.56153" lon="2.29184">
        <ele>429.078</ele>
        <time>2015-08-05T12:34:27Z</time>
      </trkpt>
      <trkpt lat="44.56124" lon="2.29256">
        <ele>425.96</ele>
        <time>2015-08-05T12:34:47Z</time>
      </trkpt>
      <trkpt lat="44.56092" lon="2.29314">
        <ele>426.586</ele>
        <time>2015-08-05T12:35:07Z</time>
      </trkpt>
      <trkpt lat="44.56088" lon="2.29491">
        <ele>437.36</ele>
        <time>2015-08-05T12:35:27Z</time>
      </trkpt>
      <trkpt lat="44.56111" lon="2.29524">
        <ele>437.426</ele>
        <time>2015-08-05T12:35:47Z</time>
      </trkpt>
      <trkpt lat="44.56117" lon="2.29555">
        <ele>437.208</ele>
        <time>2015-08-05T12:36:07Z</time>
      </trkpt>
      <trkpt lat="44.561" lon="2.2962">
        <ele>437.174</ele>
        <time>2015-08-05T12:36:27Z</time>
      </trkpt>
      <trkpt lat="44.55991" lon="2.29765">
        <ele>450.879</ele>
        <time>2015-08-05T12:36:47Z</time>
      </trkpt>
      <trkpt lat="44.55977" lon="2.29809">
        <ele>451.759</ele>
        <time>2015-08-05T12:37:07Z</time>
      </trkpt>
      <trkpt lat="44.55987" lon="2.29872">
        <ele>456.651</ele>
        <time>2015-08-05T12:37:27Z</time>
      </trkpt>
      <trkpt lat="44.55985" lon="2.299">
        <ele>459.583</ele>
        <time>2015-08-05T12:37:47Z</time>
      </trkpt>
      <trkpt lat="44.56016" lon="2.30049">
        <ele>474.234</ele>
        <time>2015-08-05T12:38:07Z</time>
      </trkpt>
      <trkpt lat="44.56015" lon="2.30062">
        <ele>474.71</ele>
        <time>2015-08-05T12:38:27Z</time>
      </trkpt>
      <trkpt lat="44.56034" lon="2.30149">
        <ele>483.642</ele>
        <time>2020-11-25T23:35:00Z</time>
      </trkpt>
      <trkpt lat="44.56104" lon="2.30151">
        <ele>489.265</ele>
        <time>2020-11-25T23:35:20Z</time>
      </trkpt>
      <trkpt lat="44.56135" lon="2.30131">
        <ele>485.668</ele>
        <time>2020-11-25T23:35:40Z</time>
      </trkpt>
      <trkpt lat="44.56152" lon="2.30142">
        <ele>486.014</ele>
        <time>2020-11-25T23:36:00Z</time>
      </trkpt>
      <trkpt lat="44.56155" lon="2.30173">
        <ele>489.208</ele>
        <time>2020-11-25T23:36:20Z</time>
      </trkpt>
      <trkpt lat="44.56137" lon="2.30213">
        <ele>497.152</ele>
        <time>2020-11-25T23:36:40Z</time>
      </trkpt>
      <trkpt lat="44.56075" lon="2.30277">
        <ele>500.987</ele>
        <time>2020-11-25T23:37:00Z</time>
      </trkpt>
      <trkpt lat="44.56052" lon="2.30326">
        <ele>504.597</ele>
        <time>2020-11-25T23:37:20Z</time>
      </trkpt>
      <trkpt lat="44.56041" lon="2.3039">
        <ele>504.959</ele>
        <time>2020-11-25T23:37:40Z</time>
      </trkpt>
      <trkpt lat="44.56028" lon="2.30415">
        <ele>505.931</ele>
        <time>2015-08-05T12:40:27Z</time>
      </trkpt>
      <trkpt lat="44.56013" lon="2.3047">
        <ele>503.872</ele>
        <time>2020-11-25T23:38:20Z</time>
      </trkpt>
      <trkpt lat="44.56006" lon="2.3061">
        <ele>506.618</ele>
        <time>2020-11-25T23:38:40Z</time>
      </trkpt>
      <trkpt lat="44.56018" lon="2.30663">
        <ele>502.57</ele>
        <time>2020-11-25T23:39:00Z</time>
      </trkpt>
      <trkpt lat="44.56028" lon="2.3078">
        <ele>506.939</ele>
        <time>2020-11-25T23:39:20Z</time>
      </trkpt>
      <trkpt lat="44.56003" lon="2.30932">
        <ele>503.201</ele>
        <time>2020-11-25T23:39:40Z</time>
      </trkpt>
      <trkpt lat="44.56023" lon="2.31049">
        <ele>513.721</ele>
        <time>2015-08-05T12:42:47Z</time>
      </trkpt>
      <trkpt lat="44.56055" lon="2.31109">
        <ele>520.808</ele>
        <time>2015-08-05T12:43:07Z</time>
      </trkpt>
      <trkpt lat="44.56087" lon="2.31227">
        <ele>525.489</ele>
        <time>2015-08-05T12:43:27Z</time>
      </trkpt>
      <trkpt lat="44.56105" lon="2.31272">
        <ele>528.784</ele>
        <time>2015-08-05T12:43:47Z</time>
      </trkpt>
      <trkpt lat="44.56137" lon="2.31317">
        <ele>530.344</ele>
        <time>2015-08-05T12:44:07Z</time>
      </trkpt>
      <trkpt lat="44.56172" lon="2.31346">
        <ele>535.046</ele>
        <time>2015-08-05T12:44:27Z</time>
      </trkpt>
      <trkpt lat="44.56183" lon="2.31367">
        <ele>535.948</ele>
        <time>2015-08-05T12:44:47Z</time>
      </trkpt>
      <trkpt lat="44.56185" lon="2.31449">
        <ele>531.769</ele>
        <time>2015-08-05T12:45:07Z</time>
      </trkpt>
      <trkpt lat="44.56217" lon="2.31643">
        <ele>538.785</ele>
        <time>2015-08-05T12:45:27Z</time>
      </trkpt>
      <trkpt lat="44.56218" lon="2.31706">
        <ele>542.927</ele>
        <time>2015-08-05T12:45:47Z</time>
      </trkpt>
      <trkpt lat="44.56229" lon="2.31764">
        <ele>551.397</ele>
        <time>2015-08-05T12:46:07Z</time>
      </trkpt>
      <trkpt lat="44.56231" lon="2.31812">
        <ele>552.323</ele>
        <time>2015-08-05T12:46:27Z</time>
      </trkpt>
      <trkpt lat="44.56248" lon="2.31927">
        <ele>549.325</ele>
        <time>2015-08-05T12:46:47Z</time>
      </trkpt>
      <trkpt lat="44.56262" lon="2.31979">
        <ele>551.208</ele>
        <time>2015-08-05T12:47:07Z</time>
      </trkpt>
      <trkpt lat="44.56319" lon="2.32109">
        <ele>559.925</ele>
        <time>2015-08-05T12:47:27Z</time>
      </trkpt>
      <trkpt lat="44.56353" lon="2.32205">
        <ele>564.22</ele>
        <time>2015-08-05T12:47:47Z</time>
      </trkpt>
      <trkpt lat="44.56368" lon="2.32314">
        <ele>565.56</ele>
        <time>2015-08-05T12:48:07Z</time>
      </trkpt>
      <trkpt lat="44.56387" lon="2.32362">
        <ele>574.122</ele>
        <time>2015-08-05T12:48:27Z</time>
      </trkpt>
      <trkpt lat="44.56434" lon="2.32388">
        <ele>580.844</ele>
        <time>2015-08-05T12:48:47Z</time>
      </trkpt>
      <trkpt lat="44.56453" lon="2.32429">
        <ele>578.155</ele>
        <time>2015-08-05T12:49:07Z</time>
      </trkpt>
      <trkpt lat="44.5653" lon="2.3248">
        <ele>574.931</ele>
        <time>2015-08-05T12:49:27Z</time>
      </trkpt>
      <trkpt lat="44.5658" lon="2.32558">
        <ele>568.223</ele>
        <time>2015-08-05T12:49:47Z</time>
      </trkpt>
      <trkpt lat="44.56573" lon="2.32477">
        <ele>573.346</ele>
        <time>2015-08-05T12:50:07Z</time>
      </trkpt>
      <trkpt lat="44.56554" lon="2.32412">
        <ele>575.588</ele>
        <time>2015-08-05T12:50:27Z</time>
      </trkpt>
      <trkpt lat="44.56565" lon="2.32374">
        <ele>578.016</ele>
        <time>2015-08-05T12:50:47Z</time>
      </trkpt>
      <trkpt lat="44.566" lon="2.32344">
        <ele>578.108</ele>
        <time>2015-08-05T12:51:07Z</time>
      </trkpt>
      <trkpt lat="44.56608" lon="2.32311">
        <ele>579.13</ele>
        <time>2015-08-05T12:51:27Z</time>
      </trkpt>
      <trkpt lat="44.56744" lon="2.32395">
        <ele>570.265</ele>
        <time>2015-08-05T12:51:47Z</time>
      </trkpt>
      <trkpt lat="44.56811" lon="2.32481">
        <ele>565.355</ele>
        <time>2015-08-05T12:52:07Z</time>
      </trkpt>
      <trkpt lat="44.56963" lon="2.32564">
        <ele>553.967</ele>
        <time>2015-08-05T12:52:27Z</time>
      </trkpt>
      <trkpt lat="44.57032" lon="2.3253">
        <ele>551.279</ele>
        <time>2015-08-05T12:52:47Z</time>
      </trkpt>
      <trkpt lat="44.57074" lon="2.32497">
        <ele>550.23</ele>
        <time>2015-08-05T12:53:07Z</time>
      </trkpt>
      <trkpt lat="44.57083" lon="2.32521">
        <ele>549.346</ele>
        <time>2015-08-05T12:53:27Z</time>
      </trkpt>
      <trkpt lat="44.57079" lon="2.3257">
        <ele>546.518</ele>
        <time>2015-08-05T12:53:47Z</time>
      </trkpt>
      <trkpt lat="44.57061" lon="2.32609">
        <ele>545.278</ele>
        <time>2015-08-05T12:54:07Z</time>
      </trkpt>
      <trkpt lat="44.57034" lon="2.32647">
        <ele>541.833</ele>
        <time>2015-08-05T12:54:27Z</time>
      </trkpt>
      <trkpt lat="44.57001" lon="2.32645">
        <ele>545.426</ele>
        <time>2015-08-05T12:54:47Z</time>
      </trkpt>
      <trkpt lat="44.56955" lon="2.32677">
        <ele>539.708</ele>
        <time>2015-08-05T12:55:07Z</time>
      </trkpt>
      <trkpt lat="44.56926" lon="2.32709">
        <ele>536.673</ele>
        <time>2015-08-05T12:55:27Z</time>
      </trkpt>
      <trkpt lat="44.56885" lon="2.32722">
        <ele>537.058</ele>
        <time>2015-08-05T12:55:47Z</time>
      </trkpt>
      <trkpt lat="44.5688" lon="2.32737">
        <ele>536.068</ele>
        <time>2015-08-05T12:56:07Z</time>
      </trkpt>
      <trkpt lat="44.56891" lon="2.32742">
        <ele>535.63</ele>
        <time>2015-08-05T12:56:27Z</time>
      </trkpt>
      <trkpt lat="44.56926" lon="2.32742">
        <ele>534.282</ele>
        <time>2015-08-05T12:56:47Z</time>
      </trkpt>
      <trkpt lat="44.56976" lon="2.32719">
        <ele>530.173</ele>
        <time>2015-08-05T12:57:07Z</time>
      </trkpt>
      <trkpt lat="44.57032" lon="2.32721">
        <ele>525.319</ele>
        <time>2015-08-05T12:57:27Z</time>
      </trkpt>
      <trkpt lat="44.571" lon="2.32756">
        <ele>515.611</ele>
        <time>2015-08-05T12:57:47Z</time>
      </trkpt>
      <trkpt lat="44.57222" lon="2.32746">
        <ele>497.611</ele>
        <time>2015-08-05T12:58:07Z</time>
      </trkpt>
      <trkpt lat="44.57239" lon="2.32731">
        <ele>495.021</ele>
        <time>2015-08-05T12:58:27Z</time>
      </trkpt>
      <trkpt lat="44.57288" lon="2.32627">
        <ele>491.903</ele>
        <time>2015-08-05T12:58:47Z</time>
      </trkpt>
      <trkpt lat="44.57349" lon="2.32556">
        <ele>484.008</ele>
        <time>2015-08-05T12:59:07Z</time>
      </trkpt>
      <trkpt lat="44.57363" lon="2.32509">
        <ele>483.057</ele>
        <time>2015-08-05T12:59:27Z</time>
      </trkpt>
      <trkpt lat="44.5737" lon="2.32468">
        <ele>480.142</ele>
        <time>2015-08-05T12:59:47Z</time>
      </trkpt>
      <trkpt lat="44.5739" lon="2.32393">
        <ele>468.392</ele>
        <time>2015-08-05T13:00:07Z</time>
      </trkpt>
      <trkpt lat="44.57419" lon="2.32354">
        <ele>466.094</ele>
        <time>2015-08-05T13:00:27Z</time>
      </trkpt>
      <trkpt lat="44.57468" lon="2.32341">
        <ele>467.076</ele>
        <time>2015-08-05T13:00:47Z</time>
      </trkpt>
      <trkpt lat="44.57513" lon="2.32339">
        <ele>471.737</ele>
        <time>2015-08-05T13:01:07Z</time>
      </trkpt>
      <trkpt lat="44.57575" lon="2.32415">
        <ele>484.273</ele>
        <time>2015-08-05T13:01:27Z</time>
      </trkpt>
      <trkpt lat="44.5761" lon="2.3241">
        <ele>486.985</ele>
        <time>2015-08-05T13:01:47Z</time>
      </trkpt>
      <trkpt lat="44.57665" lon="2.32439">
        <ele>486.212</ele>
        <time>2015-08-05T13:02:07Z</time>
      </trkpt>
      <trkpt lat="44.5773" lon="2.32447">
        <ele>490.932</ele>
        <time>2015-08-05T13:02:27Z</time>
      </trkpt>
      <trkpt lat="44.57755" lon="2.32401">
        <ele>486.405</ele>
        <time>2015-08-05T13:02:47Z</time>
      </trkpt>
      <trkpt lat="44.57829" lon="2.32379">
        <ele>490.208</ele>
        <time>2015-08-05T13:03:07Z</time>
      </trkpt>
      <trkpt lat="44.57864" lon="2.32324">
        <ele>498.047</ele>
        <time>2015-08-05T13:03:27Z</time>
      </trkpt>
      <trkpt lat="44.57863" lon="2.32276">
        <ele>496.212</ele>
        <time>2015-08-05T13:03:47Z</time>
      </trkpt>
      <trkpt lat="44.5787" lon="2.32262">
        <ele>496.482</ele>
        <time>2015-08-05T13:04:07Z</time>
      </trkpt>
      <trkpt lat="44.579" lon="2.32254">
        <ele>504.754</ele>
        <time>2015-08-05T13:04:27Z</time>
      </trkpt>
      <trkpt lat="44.57934" lon="2.32222">
        <ele>505.476</ele>
        <time>2015-08-05T13:04:47Z</time>
      </trkpt>
      <trkpt lat="44.57953" lon="2.32209">
        <ele>506.077</ele>
        <time>2015-08-05T13:05:07Z</time>
      </trkpt>
      <trkpt lat="44.57998" lon="2.32175">
        <ele>508.733</ele>
        <time>2015-08-05T13:05:27Z</time>
      </trkpt>
      <trkpt lat="44.58073" lon="2.32017">
        <ele>506.435</ele>
        <time>2015-08-05T13:05:47Z</time>
      </trkpt>
      <trkpt lat="44.58124" lon="2.31979">
        <ele>506.756</ele>
        <time>2015-08-05T13:06:07Z</time>
      </trkpt>
      <trkpt lat="44.58133" lon="2.32008">
        <ele>509.659</ele>
        <time>2015-08-05T13:06:27Z</time>
      </trkpt>
      <trkpt lat="44.58166" lon="2.32048">
        <ele>509.414</ele>
        <time>2015-08-05T13:06:47Z</time>
      </trkpt>
      <trkpt lat="44.58205" lon="2.32062">
        <ele>505.408</ele>
        <time>2015-08-05T13:07:07Z</time>
      </trkpt>
      <trkpt lat="44.58242" lon="2.32064">
        <ele>504.851</ele>
        <time>2015-08-05T13:07:27Z</time>
      </trkpt>
      <trkpt lat="44.58317" lon="2.32019">
        <ele>506.316</ele>
        <time>2015-08-05T13:07:47Z</time>
      </trkpt>
      <trkpt lat="44.58349" lon="2.31977">
        <ele>506.226</ele>
        <time>2015-08-05T13:08:07Z</time>
      </trkpt>
      <trkpt lat="44.58417" lon="2.31938">
        <ele>513.538</ele>
        <time>2015-08-05T13:08:27Z</time>
      </trkpt>
      <trkpt lat="44.58439" lon="2.31941">
        <ele>513.95</ele>
        <time>2015-08-05T13:08:47Z</time>
      </trkpt>
      <trkpt lat="44.58485" lon="2.31959">
        <ele>512.651</ele>
        <time>2015-08-05T13:09:07Z</time>
      </trkpt>
      <trkpt lat="44.58498" lon="2.31973">
        <ele>512.177</ele>
        <time>2015-08-05T13:09:27Z</time>
      </trkpt>
      <trkpt lat="44.58508" lon="2.3199">
        <ele>510.769</ele>
        <time>2015-08-05T13:09:47Z</time>
      </trkpt>
      <trkpt lat="44.58522" lon="2.32035">
        <ele>508.245</ele>
        <time>2015-08-05T13:10:07Z</time>
      </trkpt>
      <trkpt lat="44.58583" lon="2.32146">
        <ele>499.647</ele>
        <time>2015-08-05T13:10:27Z</time>
      </trkpt>
      <trkpt lat="44.58618" lon="2.32187">
        <ele>496.411</ele>
        <time>2015-08-05T13:10:47Z</time>
      </trkpt>
      <trkpt lat="44.58673" lon="2.32292">
        <ele>485.808</ele>
        <time>2015-08-05T13:11:07Z</time>
      </trkpt>
      <trkpt lat="44.58672" lon="2.32325">
        <ele>484.23</ele>
        <time>2015-08-05T13:11:27Z</time>
      </trkpt>
      <trkpt lat="44.58649" lon="2.32387">
        <ele>477.115</ele>
        <time>2015-08-05T13:11:47Z</time>
      </trkpt>
      <trkpt lat="44.58635" lon="2.32408">
        <ele>473.065</ele>
        <time>2015-08-05T13:12:07Z</time>
      </trkpt>
      <trkpt lat="44.58584" lon="2.32443">
        <ele>466.567</ele>
        <time>2015-08-05T13:12:27Z</time>
      </trkpt>
      <trkpt lat="44.58565" lon="2.32476">
        <ele>459.399</ele>
        <time>2015-08-05T13:12:47Z</time>
      </trkpt>
      <trkpt lat="44.58539" lon="2.325">
        <ele>461.74</ele>
        <time>2015-08-05T13:13:07Z</time>
      </trkpt>
      <trkpt lat="44.58535" lon="2.32513">
        <ele>462.826</ele>
        <time>2015-08-05T13:13:27Z</time>
      </trkpt>
      <trkpt lat="44.58573" lon="2.32521">
        <ele>455.158</ele>
        <time>2015-08-05T13:13:47Z</time>
      </trkpt>
      <trkpt lat="44.58605" lon="2.32563">
        <ele>458.542</ele>
        <time>2015-08-05T13:14:07Z</time>
      </trkpt>
      <trkpt lat="44.58632" lon="2.32628">
        <ele>462.722</ele>
        <time>2015-08-05T13:14:27Z</time>
      </trkpt>
      <trkpt lat="44.58637" lon="2.32676">
        <ele>457.714</ele>
        <time>2015-08-05T13:14:47Z</time>
      </trkpt>
      <trkpt lat="44.5862" lon="2.32756">
        <ele>459.708</ele>
        <time>2015-08-05T13:15:07Z</time>
      </trkpt>
      <trkpt lat="44.58631" lon="2.32774">
        <ele>456.55</ele>
        <time>2015-08-05T13:15:27Z</time>
      </trkpt>
      <trkpt lat="44.58651" lon="2.32784">
        <ele>452.315</ele>
        <time>2015-08-05T13:15:47Z</time>
      </trkpt>
      <trkpt lat="44.58711" lon="2.32838">
        <ele>447.085</ele>
        <time>2015-08-05T13:16:07Z</time>
      </trkpt>
      <trkpt lat="44.58723" lon="2.32863">
        <ele>447.077</ele>
        <time>2015-08-05T13:16:27Z</time>
      </trkpt>
      <trkpt lat="44.5878" lon="2.32919">
        <ele>437.679</ele>
        <time>2015-08-05T13:16:47Z</time>
      </trkpt>
      <trkpt lat="44.58791" lon="2.32938">
        <ele>436.63</ele>
        <time>2015-08-05T13:17:07Z</time>
      </trkpt>
      <trkpt lat="44.58799" lon="2.33015">
        <ele>440.476</ele>
        <time>2015-08-05T13:17:27Z</time>
      </trkpt>
      <trkpt lat="44.58825" lon="2.33049">
        <ele>433.748</ele>
        <time>2015-08-05T13:17:47Z</time>
      </trkpt>
      <trkpt lat="44.58852" lon="2.33073">
        <ele>428.026</ele>
        <time>2015-08-05T13:18:07Z</time>
      </trkpt>
      <trkpt lat="44.58852" lon="2.33088">
        <ele>431.047</ele>
        <time>2015-08-05T13:18:27Z</time>
      </trkpt>
      <trkpt lat="44.58857" lon="2.33105">
        <ele>432.911</ele>
        <time>2015-08-05T13:18:47Z</time>
      </trkpt>
      <trkpt lat="44.58873" lon="2.33122">
        <ele>428.308</ele>
        <time>2015-08-05T13:19:07Z</time>
      </trkpt>
      <trkpt lat="44.58911" lon="2.3319">
        <ele>422.468</ele>
        <time>2015-08-05T13:19:27Z</time>
      </trkpt>
      <trkpt lat="44.58943" lon="2.33282">
        <ele>415.613</ele>
        <time>2015-08-05T13:19:47Z</time>
      </trkpt>
      <trkpt lat="44.58974" lon="2.33316">
        <ele>403.863</ele>
        <time>2015-08-05T13:20:07Z</time>
      </trkpt>
      <trkpt lat="44.5901" lon="2.3332">
        <ele>392.985</ele>
        <time>2015-08-05T13:20:27Z</time>
      </trkpt>
      <trkpt lat="44.58993" lon="2.33373">
        <ele>401.517</ele>
        <time>2015-08-05T13:20:47Z</time>
      </trkpt>
      <trkpt lat="44.58959" lon="2.3344">
        <ele>404.648</ele>
        <time>2015-08-05T13:21:07Z</time>
      </trkpt>
      <trkpt lat="44.58959" lon="2.33492">
        <ele>397.794</ele>
        <time>2015-08-05T13:21:27Z</time>
      </trkpt>
      <trkpt lat="44.58973" lon="2.33486">
        <ele>395.526</ele>
        <time>2015-08-05T13:21:47Z</time>
      </trkpt>
      <trkpt lat="44.58993" lon="2.33452">
        <ele>395.115</ele>
        <time>2015-08-05T13:22:07Z</time>
      </trkpt>
      <trkpt lat="44.59067" lon="2.3338">
        <ele>390.665</ele>
        <time>2015-08-05T13:22:27Z</time>
      </trkpt>
      <trkpt lat="44.5905" lon="2.33426">
        <ele>397.111</ele>
        <time>2015-08-05T13:22:47Z</time>
      </trkpt>
      <trkpt lat="44.59024" lon="2.33457">
        <ele>396.908</ele>
        <time>2015-08-05T13:23:07Z</time>
      </trkpt>
      <trkpt lat="44.59003" lon="2.33497">
        <ele>395.697</ele>
        <time>2015-08-05T13:23:27Z</time>
      </trkpt>
      <trkpt lat="44.59003" lon="2.3352">
        <ele>398.782</ele>
        <time>2015-08-05T13:23:47Z</time>
      </trkpt>
      <trkpt lat="44.59016" lon="2.33521">
        <ele>403.192</ele>
        <time>2015-08-05T13:24:07Z</time>
      </trkpt>
      <trkpt lat="44.591" lon="2.33451">
        <ele>415.154</ele>
        <time>2015-08-05T13:24:27Z</time>
      </trkpt>
      <trkpt lat="44.59119" lon="2.33492">
        <ele>429.596</ele>
        <time>2015-08-05T13:24:47Z</time>
      </trkpt>
      <trkpt lat="44.59136" lon="2.33517">
        <ele>437.727</ele>
        <time>2015-08-05T13:25:07Z</time>
      </trkpt>
      <trkpt lat="44.59173" lon="2.33595">
        <ele>454.213</ele>
        <time>2015-08-05T13:25:27Z</time>
      </trkpt>
      <trkpt lat="44.59217" lon="2.33651">
        <ele>474.825</ele>
        <time>2015-08-05T13:25:47Z</time>
      </trkpt>
      <trkpt lat="44.59201" lon="2.33679">
        <ele>475.421</ele>
        <time>2015-08-05T13:26:07Z</time>
      </trkpt>
      <trkpt lat="44.59197" lon="2.33719">
        <ele>481.741</ele>
        <time>2015-08-05T13:26:27Z</time>
      </trkpt>
      <trkpt lat="44.59138" lon="2.33732">
        <ele>473.605</ele>
        <time>2015-08-05T13:26:47Z</time>
      </trkpt>
      <trkpt lat="44.59118" lon="2.33783">
        <ele>476.208</ele>
        <time>2015-08-05T13:27:07Z</time>
      </trkpt>
      <trkpt lat="44.59075" lon="2.33824">
        <ele>475.668</ele>
        <time>2015-08-05T13:27:27Z</time>
      </trkpt>
      <trkpt lat="44.5904" lon="2.33835">
        <ele>471.963</ele>
        <time>2015-08-05T13:27:47Z</time>
      </trkpt>
      <trkpt lat="44.58999" lon="2.33876">
        <ele>472.283</ele>
        <time>2015-08-05T13:28:07Z</time>
      </trkpt>
      <trkpt lat="44.5896" lon="2.33887">
        <ele>476.015</ele>
        <time>2015-08-05T13:28:27Z</time>
      </trkpt>
      <trkpt lat="44.58919" lon="2.33884">
        <ele>475.277</ele>
        <time>2015-08-05T13:28:47Z</time>
      </trkpt>
      <trkpt lat="44.58873" lon="2.3391">
        <ele>475.418</ele>
        <time>2015-08-05T13:29:07Z</time>
      </trkpt>
      <trkpt lat="44.58815" lon="2.33937">
        <ele>469.594</ele>
        <time>2015-08-05T13:29:27Z</time>
      </trkpt>
      <trkpt lat="44.58783" lon="2.34112">
        <ele>468.626</ele>
        <time>2015-08-05T13:29:47Z</time>
      </trkpt>
      <trkpt lat="44.58788" lon="2.34163">
        <ele>470.455</ele>
        <time>2015-08-05T13:30:07Z</time>
      </trkpt>
      <trkpt lat="44.58774" lon="2.34216">
        <ele>467.507</ele>
        <time>2015-08-05T13:30:27Z</time>
      </trkpt>
      <trkpt lat="44.58769" lon="2.34252">
        <ele>470.117</ele>
        <time>2015-08-05T13:30:47Z</time>
      </trkpt>
      <trkpt lat="44.58781" lon="2.34285">
        <ele>473.108</ele>
        <time>2015-08-05T13:31:07Z</time>
      </trkpt>
      <trkpt lat="44.58773" lon="2.34311">
        <ele>473.371</ele>
        <time>2015-08-05T13:31:27Z</time>
      </trkpt>
      <trkpt lat="44.58777" lon="2.34333">
        <ele>475.976</ele>
        <time>2015-08-05T13:31:47Z</time>
      </trkpt>
      <trkpt lat="44.58756" lon="2.34464">
        <ele>493.746</ele>
        <time>2015-08-05T13:32:07Z</time>
      </trkpt>
      <trkpt lat="44.58724" lon="2.3456">
        <ele>502.718</ele>
        <time>2015-08-05T13:32:27Z</time>
      </trkpt>
      <trkpt lat="44.58724" lon="2.34607">
        <ele>507.09</ele>
        <time>2015-08-05T13:32:47Z</time>
      </trkpt>
      <trkpt lat="44.58755" lon="2.34679">
        <ele>516.171</ele>
        <time>2015-08-05T13:33:07Z</time>
      </trkpt>
      <trkpt lat="44.58789" lon="2.3473">
        <ele>523.317</ele>
        <time>2015-08-05T13:33:27Z</time>
      </trkpt>
      <trkpt lat="44.58825" lon="2.34719">
        <ele>531.029</ele>
        <time>2015-08-05T13:33:47Z</time>
      </trkpt>
      <trkpt lat="44.58849" lon="2.34756">
        <ele>532.398</ele>
        <time>2015-08-05T13:34:07Z</time>
      </trkpt>
      <trkpt lat="44.58887" lon="2.34845">
        <ele>537.115</ele>
        <time>2015-08-05T13:34:27Z</time>
      </trkpt>
      <trkpt lat="44.58912" lon="2.34917">
        <ele>538.026</ele>
        <time>2015-08-05T13:34:47Z</time>
      </trkpt>
      <trkpt lat="44.58894" lon="2.35125">
        <ele>538.908</ele>
        <time>2015-08-05T13:35:07Z</time>
      </trkpt>
      <trkpt lat="44.58867" lon="2.3523">
        <ele>538.715</ele>
        <time>2015-08-05T13:35:27Z</time>
      </trkpt>
      <trkpt lat="44.58848" lon="2.35348">
        <ele>543.08</ele>
        <time>2015-08-05T13:35:47Z</time>
      </trkpt>
      <trkpt lat="44.5888" lon="2.35698">
        <ele>543.57</ele>
        <time>2015-08-05T13:36:07Z</time>
      </trkpt>
      <trkpt lat="44.58878" lon="2.35819">
        <ele>546.782</ele>
        <time>2015-08-05T13:36:27Z</time>
      </trkpt>
      <trkpt lat="44.58848" lon="2.36125">
        <ele>538.724</ele>
        <time>2015-08-05T13:36:47Z</time>
      </trkpt>
      <trkpt lat="44.58855" lon="2.3618">
        <ele>539.625</ele>
        <time>2015-08-05T13:37:07Z</time>
      </trkpt>
      <trkpt lat="44.58819" lon="2.36255">
        <ele>541.021</ele>
        <time>2015-08-05T13:37:27Z</time>
      </trkpt>
      <trkpt lat="44.58775" lon="2.36319">
        <ele>541.263</ele>
        <time>2015-08-05T13:37:47Z</time>
      </trkpt>
      <trkpt lat="44.58706" lon="2.36399">
        <ele>546.933</ele>
        <time>2015-08-05T13:38:07Z</time>
      </trkpt>
      <trkpt lat="44.587" lon="2.36423">
        <ele>546.923</ele>
        <time>2015-08-05T13:38:27Z</time>
      </trkpt>
      <trkpt lat="44.58721" lon="2.36411">
        <ele>544.515</ele>
        <time>2015-08-05T13:38:47Z</time>
      </trkpt>
      <trkpt lat="44.58811" lon="2.36412">
        <ele>530.008</ele>
        <time>2015-08-05T13:39:07Z</time>
      </trkpt>
      <trkpt lat="44.58938" lon="2.36472">
        <ele>516.849</ele>
        <time>2015-08-05T13:39:27Z</time>
      </trkpt>
      <trkpt lat="44.58973" lon="2.36476">
        <ele>512.914</ele>
        <time>2015-08-05T13:39:47Z</time>
      </trkpt>
      <trkpt lat="44.58945" lon="2.36492">
        <ele>511.064</ele>
        <time>2015-08-05T13:40:07Z</time>
      </trkpt>
      <trkpt lat="44.58898" lon="2.36493">
        <ele>515.596</ele>
        <time>2015-08-05T13:40:27Z</time>
      </trkpt>
      <trkpt lat="44.58892" lon="2.36514">
        <ele>511.658</ele>
        <time>2015-08-05T13:40:47Z</time>
      </trkpt>
      <trkpt lat="44.5894" lon="2.36569">
        <ele>500.569</ele>
        <time>2015-08-05T13:41:07Z</time>
      </trkpt>
      <trkpt lat="44.58928" lon="2.36618">
        <ele>503.015</ele>
        <time>2015-08-05T13:41:27Z</time>
      </trkpt>
      <trkpt lat="44.58945" lon="2.36623">
        <ele>501.497</ele>
        <time>2015-08-05T13:41:47Z</time>
      </trkpt>
      <trkpt lat="44.59046" lon="2.36586">
        <ele>479.037</ele>
        <time>2015-08-05T13:42:07Z</time>
      </trkpt>
      <trkpt lat="44.59065" lon="2.36595">
        <ele>474.449</ele>
        <time>2015-08-05T13:42:27Z</time>
      </trkpt>
      <trkpt lat="44.59072" lon="2.36636">
        <ele>477.213</ele>
        <time>2015-08-05T13:42:47Z</time>
      </trkpt>
      <trkpt lat="44.59091" lon="2.36678">
        <ele>471.508</ele>
        <time>2015-08-05T13:43:07Z</time>
      </trkpt>
      <trkpt lat="44.59088" lon="2.36701">
        <ele>473.689</ele>
        <time>2015-08-05T13:43:27Z</time>
      </trkpt>
      <trkpt lat="44.5901" lon="2.36793">
        <ele>482.164</ele>
        <time>2015-08-05T13:43:47Z</time>
      </trkpt>
      <trkpt lat="44.58978" lon="2.36821">
        <ele>490.824</ele>
        <time>2015-08-05T13:44:07Z</time>
      </trkpt>
      <trkpt lat="44.58972" lon="2.36859">
        <ele>488.276</ele>
        <time>2015-08-05T13:44:27Z</time>
      </trkpt>
      <trkpt lat="44.58998" lon="2.36875">
        <ele>485.838</ele>
        <time>2015-08-05T13:44:47Z</time>
      </trkpt>
      <trkpt lat="44.59039" lon="2.36904">
        <ele>478.399</ele>
        <time>2015-08-05T13:45:07Z</time>
      </trkpt>
      <trkpt lat="44.59058" lon="2.36943">
        <ele>475.435</ele>
        <time>2015-08-05T13:45:27Z</time>
      </trkpt>
      <trkpt lat="44.59052" lon="2.36978">
        <ele>479.347</ele>
        <time>2015-08-05T13:45:47Z</time>
      </trkpt>
      <trkpt lat="44.59015" lon="2.3703">
        <ele>485.031</ele>
        <time>2015-08-05T13:46:07Z</time>
      </trkpt>
      <trkpt lat="44.58942" lon="2.37075">
        <ele>486.261</ele>
        <time>2015-08-05T13:46:27Z</time>
      </trkpt>
      <trkpt lat="44.58893" lon="2.37092">
        <ele>490.807</ele>
        <time>2015-08-05T13:46:47Z</time>
      </trkpt>
      <trkpt lat="44.5885" lon="2.37116">
        <ele>494.208</ele>
        <time>2015-08-05T13:47:07Z</time>
      </trkpt>
      <trkpt lat="44.58822" lon="2.37157">
        <ele>495.399</ele>
        <time>2015-08-05T13:47:27Z</time>
      </trkpt>
      <trkpt lat="44.58931" lon="2.37135">
        <ele>480.884</ele>
        <time>2015-08-05T13:47:47Z</time>
      </trkpt>
      <trkpt lat="44.58966" lon="2.37136">
        <ele>478.864</ele>
        <time>2015-08-05T13:48:07Z</time>
      </trkpt>
      <trkpt lat="44.58991" lon="2.37147">
        <ele>481.176</ele>
        <time>2015-08-05T13:48:27Z</time>
      </trkpt>
      <trkpt lat="44.59025" lon="2.37146">
        <ele>477.818</ele>
        <time>2015-08-05T13:48:47Z</time>
      </trkpt>
      <trkpt lat="44.59053" lon="2.37164">
        <ele>479.719</ele>
        <time>2015-08-05T13:49:07Z</time>
      </trkpt>
      <trkpt lat="44.59094" lon="2.37145">
        <ele>483.575</ele>
        <time>2015-08-05T13:49:27Z</time>
      </trkpt>
      <trkpt lat="44.59171" lon="2.37053">
        <ele>486.637</ele>
        <time>2015-08-05T13:49:47Z</time>
      </trkpt>
      <trkpt lat="44.59206" lon="2.36971">
        <ele>483.953</ele>
        <time>2015-08-05T13:50:07Z</time>
      </trkpt>
      <trkpt lat="44.59226" lon="2.36967">
        <ele>489.604</ele>
        <time>2015-08-05T13:50:27Z</time>
      </trkpt>
      <trkpt lat="44.59244" lon="2.36975">
        <ele>493.714</ele>
        <time>2015-08-05T13:50:47Z</time>
      </trkpt>
      <trkpt lat="44.59275" lon="2.36946">
        <ele>492.008</ele>
        <time>2015-08-05T13:51:07Z</time>
      </trkpt>
      <trkpt lat="44.59306" lon="2.36964">
        <ele>495.771</ele>
        <time>2015-08-05T13:51:27Z</time>
      </trkpt>
      <trkpt lat="44.59328" lon="2.37067">
        <ele>501.756</ele>
        <time>2015-08-05T13:51:47Z</time>
      </trkpt>
      <trkpt lat="44.59312" lon="2.37175">
        <ele>509.466</ele>
        <time>2015-08-05T13:52:07Z</time>
      </trkpt>
      <trkpt lat="44.59288" lon="2.37277">
        <ele>519.128</ele>
        <time>2015-08-05T13:52:27Z</time>
      </trkpt>
      <trkpt lat="44.59262" lon="2.37352">
        <ele>527.19</ele>
        <time>2015-08-05T13:52:47Z</time>
      </trkpt>
      <trkpt lat="44.59255" lon="2.37451">
        <ele>533.481</ele>
        <time>2015-08-05T13:53:07Z</time>
      </trkpt>
      <trkpt lat="44.59264" lon="2.37486">
        <ele>536.057</ele>
        <time>2015-08-05T13:53:27Z</time>
      </trkpt>
      <trkpt lat="44.59306" lon="2.37509">
        <ele>534.029</ele>
        <time>2015-08-05T13:53:47Z</time>
      </trkpt>
      <trkpt lat="44.5934" lon="2.37564">
        <ele>537.614</ele>
        <time>2015-08-05T13:54:07Z</time>
      </trkpt>
      <trkpt lat="44.59376" lon="2.37602">
        <ele>540.954</ele>
        <time>2015-08-05T13:54:27Z</time>
      </trkpt>
      <trkpt lat="44.59379" lon="2.37666">
        <ele>545.609</ele>
        <time>2015-08-05T13:54:47Z</time>
      </trkpt>
      <trkpt lat="44.59391" lon="2.37681">
        <ele>545.608</ele>
        <time>2015-08-05T13:55:07Z</time>
      </trkpt>
      <trkpt lat="44.59351" lon="2.3773">
        <ele>542.887</ele>
        <time>2015-08-05T13:55:27Z</time>
      </trkpt>
      <trkpt lat="44.59309" lon="2.37766">
        <ele>545.422</ele>
        <time>2015-08-05T13:55:47Z</time>
      </trkpt>
      <trkpt lat="44.59296" lon="2.37789">
        <ele>547.162</ele>
        <time>2015-08-05T13:56:07Z</time>
      </trkpt>
      <trkpt lat="44.5928" lon="2.37843">
        <ele>544.994</ele>
        <time>2015-08-05T13:56:27Z</time>
      </trkpt>
      <trkpt lat="44.59264" lon="2.37868">
        <ele>543.686</ele>
        <time>2015-08-05T13:56:47Z</time>
      </trkpt>
      <trkpt lat="44.59228" lon="2.37898">
        <ele>544.097</ele>
        <time>2015-08-05T13:57:07Z</time>
      </trkpt>
      <trkpt lat="44.5921" lon="2.37918">
        <ele>543.693</ele>
        <time>2015-08-05T13:57:27Z</time>
      </trkpt>
      <trkpt lat="44.59242" lon="2.3802">
        <ele>541.545</ele>
        <time>2015-08-05T13:57:47Z</time>
      </trkpt>
      <trkpt lat="44.59268" lon="2.38191">
        <ele>528.292</ele>
        <time>2015-08-05T13:58:07Z</time>
      </trkpt>
      <trkpt lat="44.59305" lon="2.38328">
        <ele>530.873</ele>
        <time>2015-08-05T13:58:27Z</time>
      </trkpt>
      <trkpt lat="44.59307" lon="2.38377">
        <ele>528.92</ele>
        <time>2015-08-05T13:58:47Z</time>
      </trkpt>
      <trkpt lat="44.59334" lon="2.38445">
        <ele>521.008</ele>
        <time>2015-08-05T13:59:07Z</time>
      </trkpt>
      <trkpt lat="44.59371" lon="2.3849">
        <ele>514.535</ele>
        <time>2015-08-05T13:59:27Z</time>
      </trkpt>
      <trkpt lat="44.59409" lon="2.38546">
        <ele>506.17</ele>
        <time>2015-08-05T13:59:47Z</time>
      </trkpt>
      <trkpt lat="44.59399" lon="2.38587">
        <ele>503.03</ele>
        <time>2015-08-05T14:00:07Z</time>
      </trkpt>
      <trkpt lat="44.5939" lon="2.38636">
        <ele>500.322</ele>
        <time>2015-08-05T14:00:27Z</time>
      </trkpt>
      <trkpt lat="44.59369" lon="2.3869">
        <ele>490.414</ele>
        <time>2015-08-05T14:00:47Z</time>
      </trkpt>
      <trkpt lat="44.59358" lon="2.38705">
        <ele>485.445</ele>
        <time>2015-08-05T14:01:07Z</time>
      </trkpt>
      <trkpt lat="44.59344" lon="2.38746">
        <ele>475.371</ele>
        <time>2015-08-05T14:01:27Z</time>
      </trkpt>
      <trkpt lat="44.59348" lon="2.38768">
        <ele>473.963</ele>
        <time>2015-08-05T14:01:47Z</time>
      </trkpt>
      <trkpt lat="44.59324" lon="2.38764">
        <ele>466.865</ele>
        <time>2015-08-05T14:02:07Z</time>
      </trkpt>
      <trkpt lat="44.59322" lon="2.38784">
        <ele>464.768</ele>
        <time>2015-08-05T14:02:27Z</time>
      </trkpt>
      <trkpt lat="44.59388" lon="2.38826">
        <ele>464.114</ele>
        <time>2015-08-05T14:02:47Z</time>
      </trkpt>
      <trkpt lat="44.59495" lon="2.38916">
        <ele>430.808</ele>
        <time>2015-08-05T14:03:07Z</time>
      </trkpt>
      <trkpt lat="44.59535" lon="2.38908">
        <ele>421.112</ele>
        <time>2015-08-05T14:03:27Z</time>
      </trkpt>
      <trkpt lat="44.59554" lon="2.38862">
        <ele>411.137</ele>
        <time>2015-08-05T14:03:47Z</time>
      </trkpt>
      <trkpt lat="44.59559" lon="2.38822">
        <ele>409.627</ele>
        <time>2015-08-05T14:04:07Z</time>
      </trkpt>
      <trkpt lat="44.59572" lon="2.38766">
        <ele>401.399</ele>
        <time>2015-08-05T14:04:27Z</time>
      </trkpt>
      <trkpt lat="44.59591" lon="2.38711">
        <ele>387.361</ele>
        <time>2015-08-05T14:04:47Z</time>
      </trkpt>
      <trkpt lat="44.59603" lon="2.38687">
        <ele>383.472</ele>
        <time>2015-08-05T14:05:07Z</time>
      </trkpt>
      <trkpt lat="44.5962" lon="2.38675">
        <ele>375.238</ele>
        <time>2015-08-05T14:05:27Z</time>
      </trkpt>
      <trkpt lat="44.5961" lon="2.38717">
        <ele>372.62</ele>
        <time>2015-08-05T14:05:47Z</time>
      </trkpt>
      <trkpt lat="44.59623" lon="2.38697">
        <ele>370.864</ele>
        <time>2015-08-05T14:06:07Z</time>
      </trkpt>
      <trkpt lat="44.5962" lon="2.3874">
        <ele>365.906</ele>
        <time>2015-08-05T14:06:27Z</time>
      </trkpt>
      <trkpt lat="44.59637" lon="2.38734">
        <ele>356.916</ele>
        <time>2015-08-05T14:06:47Z</time>
      </trkpt>
      <trkpt lat="44.59627" lon="2.38772">
        <ele>357.808</ele>
        <time>2015-08-05T14:07:07Z</time>
      </trkpt>
      <trkpt lat="44.59636" lon="2.38805">
        <ele>347.372</ele>
        <time>2015-08-05T14:07:27Z</time>
      </trkpt>
      <trkpt lat="44.59639" lon="2.38842">
        <ele>339.357</ele>
        <time>2015-08-05T14:07:47Z</time>
      </trkpt>
      <trkpt lat="44.59651" lon="2.3886">
        <ele>328.597</ele>
        <time>2015-08-05T14:08:07Z</time>
      </trkpt>
      <trkpt lat="44.59658" lon="2.38923">
        <ele>316.199</ele>
        <time>2015-08-05T14:08:27Z</time>
      </trkpt>
      <trkpt lat="44.59676" lon="2.3897">
        <ele>306.431</ele>
        <time>2015-08-05T14:08:47Z</time>
      </trkpt>
      <trkpt lat="44.59703" lon="2.39033">
        <ele>283.652</ele>
        <time>2015-08-05T14:09:07Z</time>
      </trkpt>
      <trkpt lat="44.59724" lon="2.39024">
        <ele>273.828</ele>
        <time>2015-08-05T14:09:27Z</time>
      </trkpt>
      <trkpt lat="44.59734" lon="2.39062">
        <ele>264.87</ele>
        <time>2015-08-05T14:09:47Z</time>
      </trkpt>
      <trkpt lat="44.59756" lon="2.39077">
        <ele>256.662</ele>
        <time>2015-08-05T14:10:07Z</time>
      </trkpt>
      <trkpt lat="44.59773" lon="2.3911">
        <ele>250.583</ele>
        <time>2015-08-05T14:10:27Z</time>
      </trkpt>
      <trkpt lat="44.59803" lon="2.39142">
        <ele>241.911</ele>
        <time>2015-08-05T14:10:47Z</time>
      </trkpt>
      <trkpt lat="44.59824" lon="2.39217">
        <ele>226.708</ele>
        <time>2015-08-05T14:11:07Z</time>
      </trkpt>
      <trkpt lat="44.5981" lon="2.39316">
        <ele>237.072</ele>
        <time>2015-08-05T14:11:27Z</time>
      </trkpt>
      <trkpt lat="44.5982" lon="2.39351">
        <ele>244.627</ele>
        <time>2015-08-05T14:11:47Z</time>
      </trkpt>
      <trkpt lat="44.59813" lon="2.39394">
        <ele>249.517</ele>
        <time>2015-08-05T14:12:07Z</time>
      </trkpt>
      <trkpt lat="44.59823" lon="2.39468">
        <ele>254.919</ele>
        <time>2015-08-05T14:12:27Z</time>
      </trkpt>
      <trkpt lat="44.59869" lon="2.39558">
        <ele>272.051</ele>
        <time>2015-08-05T14:12:47Z</time>
      </trkpt>
      <trkpt lat="44.59886" lon="2.39567">
        <ele>277.842</ele>
        <time>2015-08-05T14:13:07Z</time>
      </trkpt>
      <trkpt lat="44.5989" lon="2.39624">
        <ele>275.878</ele>
        <time>2015-08-05T14:13:27Z</time>
      </trkpt>
      <trkpt lat="44.59904" lon="2.39721">
        <ele>287.78</ele>
        <time>2015-08-05T14:13:47Z</time>
      </trkpt>
      <trkpt lat="44.5992" lon="2.3972">
        <ele>294.488</ele>
        <time>2015-08-05T14:14:07Z</time>
      </trkpt>
      <trkpt lat="44.59943" lon="2.39751">
        <ele>299.924</ele>
        <time>2015-08-05T14:14:27Z</time>
      </trkpt>
      <trkpt lat="44.59951" lon="2.39833">
        <ele>311.726</ele>
        <time>2015-08-05T14:14:47Z</time>
      </trkpt>
      <trkpt lat="44.59942" lon="2.39911">
        <ele>321.008</ele>
        <time>2015-08-05T14:15:07Z</time>
      </trkpt>
      <trkpt lat="44.59931" lon="2.3994">
        <ele>318.354</ele>
        <time>2015-08-05T14:15:27Z</time>
      </trkpt>
      <trkpt lat="44.59929" lon="2.39969">
        <ele>318.479</ele>
        <time>2015-08-05T14:15:47Z</time>
      </trkpt>
      <trkpt lat="44.59948" lon="2.40012">
        <ele>327.399</ele>
        <time>2015-08-05T14:16:07Z</time>
      </trkpt>
    </trkseg>
  </trk>
</gpx>